Forside
METAR-TAF:

METAR-TAF

Lufthavne :

Gary, Indiana, USA

Breddekreds: 41-37N, længdekreds: 087-25W, højde: 180 m

Aktuelle vejr

Denne rapport blev lavet for 1 time og 6 minutter siden, kl. 02:45 UTC
Vind 10 kt fra vestnordvest
Temperatur -3°C
Fugtighed 50%
Tryk 1018 hPa
Sigt: 16.1 km
skyfri

METAR: KGYY 280245Z 29010KT 10SM SKC M03/M12 A3005

Tid: 21:51 (03:51 UTC)

Vejrudsigter

Denne rapport blev lavet for 4 timer og 31 minutter siden, kl. 23:20 UTC
Foreløbig gælder fra 28 på 00 UTC til 28 på 24 UTC
Vind 13 kt fra vest
Sigt: 10 km
Spredte skyer i en højde af 3500 ft
Fra 28 på 0600 UTC
Vind 4 kt fra nordvest
Sigt: 10 km
skyfri
Fra 28 på 1500 UTC
Vind 10 kt fra vestnordvest med vindstød på up til 19 kt
Sigt: 10 km
Spredte skyer i en højde af 4500 ft

TAF: KGYY 272320Z 2800/2824 28013KT P6SM SCT035 FM280600 31004KT P6SM SKC FM281500 29010G19KT P6SM SCT045

Vejrobservationer og prognoser fra mere end 4000 lufthavne (METAR og TAF).

De gule og røde prikker repræsenterer de meteorologiske stationer.

Flyt musen over at se navnet på stationen.

Så klik over at se vejr observationer og prognoser.

At skifte det kort: Klik på de grønne knapper med et sort kors for at zoome ind; på den grønne knap med en bindestreg for at zoome ud; eller på de grønne pile for tilstødende kort.


METAR-TAF: